Terminal Aerodrome Forecast
Issued by NWS Cleveland, OH

Home | Current Version | Previous Version | Text Only | Print | Product List | Glossary Off
Versions: 1 2 3 4 5 6 7 8 9 10 11 12 13 14 15 16 17 18 19 20 21 22 23 24 25 26

000
FTUS41 KCLE 051700
TAFCAK
TAF
KCAK 051732Z 0518/0618 25004KT 6SM HZ SCT020 OVC080
      TEMPO 0518/0522 5SM -SHRA HZ BKN020
     FM052200 VRB04KT 6SM HZ SCT020 OVC080
      TEMPO 0522/0602 4SM -SHRA BR OVC020
     FM060200 VRB02KT 4SM BR BKN020 OVC045
      TEMPO 0609/0613 1SM BR
     FM061600 27005KT P6SM BKN045=

USA.gov is the U.S. government's official web portal to all federal, state and local government web resources and services.